createdAt,value
2023-05-19T00:00:14.824Z,3.47
2023-05-19T00:03:18.028Z,3.80
2023-05-19T00:06:25.161Z,3.78
2023-05-19T00:09:27.685Z,3.53
2023-05-19T00:12:30.511Z,3.75
2023-05-19T00:15:32.869Z,3.35
2023-05-19T00:18:35.200Z,3.73
2023-05-19T00:21:40.608Z,3.40
2023-05-19T00:24:42.916Z,3.65
2023-05-19T00:27:45.104Z,3.50
2023-05-19T00:30:47.769Z,3.80
2023-05-19T00:33:49.976Z,3.20
2023-05-19T00:36:52.261Z,3.28
2023-05-19T00:39:54.570Z,3.40
2023-05-19T00:42:56.795Z,3.47
2023-05-19T00:45:59.038Z,3.55
2023-05-19T00:49:01.298Z,3.60
2023-05-19T00:52:06.194Z,3.53
2023-05-19T00:55:09.164Z,3.30
2023-05-19T00:58:12.289Z,3.63
2023-05-19T01:01:17.198Z,3.70
2023-05-19T01:04:20.296Z,3.73
2023-05-19T01:07:23.469Z,3.83
2023-05-19T01:10:25.721Z,3.80
2023-05-19T01:13:28.668Z,3.88
2023-05-19T01:16:32.213Z,4.00
2023-05-19T01:19:40.650Z,4.07
2023-05-19T01:22:46.012Z,3.90
2023-05-19T01:26:04.572Z,3.80
2023-05-19T01:29:09.383Z,3.92
2023-05-19T01:32:12.076Z,3.50
2023-05-19T01:35:15.723Z,3.77
2023-05-19T01:38:18.842Z,3.70
2023-05-19T01:41:22.228Z,4.03
2023-05-19T01:44:26.940Z,3.75
2023-05-19T01:47:29.365Z,4.07
2023-05-19T01:50:32.753Z,4.20
2023-05-19T01:53:35.312Z,4.22
2023-05-19T01:56:46.221Z,4.45
2023-05-19T02:00:00.746Z,4.15
2023-05-19T02:03:03.081Z,4.50
2023-05-19T02:06:08.124Z,4.20
2023-05-19T02:09:13.844Z,4.40
2023-05-19T02:12:16.004Z,4.82
2023-05-19T02:15:21.564Z,4.55
2023-05-19T02:18:25.168Z,5.47
2023-05-19T02:21:27.460Z,4.33
2023-05-19T02:24:30.621Z,4.68
2023-05-19T02:27:35.144Z,4.40
2023-05-19T02:30:38.206Z,4.88
2023-05-19T02:33:40.528Z,4.88
2023-05-19T02:36:44.297Z,4.20
2023-05-19T02:39:46.501Z,4.75
2023-05-19T02:42:48.759Z,4.15
2023-05-19T02:45:51.014Z,4.80
2023-05-19T02:48:53.282Z,4.65
2023-05-19T02:51:55.518Z,4.33
2023-05-19T02:54:57.724Z,4.57
2023-05-19T02:58:00.113Z,4.70
2023-05-19T03:01:02.729Z,5.28
2023-05-19T03:04:05.131Z,5.00
2023-05-19T03:07:07.833Z,5.10
2023-05-19T03:10:10.518Z,4.80
2023-05-19T03:13:12.966Z,5.28
2023-05-19T03:16:15.226Z,5.32
2023-05-19T03:19:18.368Z,4.93
2023-05-19T03:22:21.406Z,4.67
2023-05-19T03:25:23.819Z,5.05
2023-05-19T03:28:27.518Z,5.30
2023-05-19T03:31:30.682Z,4.63
2023-05-19T03:34:35.535Z,5.57
2023-05-19T03:37:37.910Z,4.77
2023-05-19T03:40:41.495Z,4.85
2023-05-19T03:43:46.282Z,5.20
2023-05-19T03:46:48.777Z,4.50
2023-05-19T03:49:53.801Z,4.88
2023-05-19T03:53:23.585Z,4.47
2023-05-19T03:56:27.568Z,5.22
2023-05-19T03:59:29.843Z,4.63
2023-05-19T04:02:32.217Z,4.70
2023-05-19T04:05:34.583Z,4.75
2023-05-19T04:08:36.892Z,4.37
2023-05-19T04:11:39.858Z,4.68
2023-05-19T04:14:42.088Z,4.80
2023-05-19T04:17:46.212Z,5.18
2023-05-19T04:20:48.966Z,4.68
2023-05-19T04:23:51.251Z,4.90
2023-05-19T04:26:53.812Z,4.40
2023-05-19T04:29:56.234Z,4.75
2023-05-19T04:32:59.897Z,5.43
2023-05-19T04:36:05.768Z,4.82
2023-05-19T04:39:11.688Z,4.77
2023-05-19T04:42:19.364Z,4.95
2023-05-19T04:45:23.392Z,5.07
2023-05-19T04:48:30.987Z,5.07
2023-05-19T04:51:33.300Z,5.07
2023-05-19T04:54:37.791Z,5.83
2023-05-19T04:57:40.375Z,5.70
2023-05-19T05:00:42.979Z,5.35
2023-05-19T05:03:45.299Z,5.38
2023-05-19T05:06:48.870Z,5.10
2023-05-19T05:09:51.388Z,6.57
2023-05-19T05:12:53.905Z,6.40
2023-05-19T05:15:56.382Z,6.25
2023-05-19T05:18:58.931Z,6.63
2023-05-19T05:22:02.199Z,6.88
2023-05-19T05:25:06.798Z,6.60
2023-05-19T05:28:09.203Z,6.68
2023-05-19T05:31:13.070Z,7.50
2023-05-19T05:34:16.192Z,7.60
2023-05-19T05:37:18.913Z,7.57
2023-05-19T05:40:21.616Z,7.33
2023-05-19T05:43:24.131Z,7.65
2023-05-19T05:46:35.474Z,7.38
2023-05-19T05:49:43.347Z,7.93
2023-05-19T05:52:48.486Z,7.88
2023-05-19T05:55:54.840Z,7.60
2023-05-19T05:59:02.102Z,6.88
2023-05-19T06:02:04.604Z,7.20
2023-05-19T06:05:11.162Z,7.30
2023-05-19T06:08:14.218Z,6.88
2023-05-19T06:11:16.959Z,6.63
2023-05-19T06:14:19.790Z,7.03
2023-05-19T06:17:40.217Z,7.15
2023-05-19T06:20:43.152Z,6.45
2023-05-19T06:23:47.230Z,6.40
2023-05-19T06:26:51.751Z,7.10
2023-05-19T06:29:56.054Z,7.10
2023-05-19T06:32:58.484Z,6.38
2023-05-19T06:36:03.894Z,6.10
2023-05-19T06:39:06.946Z,6.55
2023-05-19T06:42:09.292Z,6.50
2023-05-19T06:45:30.592Z,6.68
2023-05-19T06:48:35.588Z,7.22
2023-05-19T06:51:44.133Z,6.47
2023-05-19T06:54:47.155Z,6.65
2023-05-19T06:57:52.354Z,6.80
2023-05-19T07:01:02.153Z,6.88
2023-05-19T07:04:11.694Z,6.68
2023-05-19T07:07:14.158Z,6.30
2023-05-19T07:10:17.716Z,6.78
2023-05-19T07:13:21.084Z,5.90
2023-05-19T07:16:23.857Z,6.18
2023-05-19T07:19:26.430Z,6.30
2023-05-19T07:22:31.386Z,6.30
2023-05-19T07:25:37.271Z,6.38
2023-05-19T07:28:43.572Z,7.07
2023-05-19T07:31:45.878Z,6.35
2023-05-19T07:34:48.519Z,6.57
2023-05-19T07:37:52.577Z,5.88
2023-05-19T07:40:54.956Z,7.53
2023-05-19T07:43:57.722Z,7.57
2023-05-19T07:47:00.219Z,9.38
2023-05-19T07:50:03.058Z,9.18
2023-05-19T07:53:05.719Z,9.30
2023-05-19T07:56:11.193Z,8.73
2023-05-19T07:59:13.737Z,8.43
2023-05-19T08:02:16.143Z,7.63
2023-05-19T08:05:18.630Z,7.00
2023-05-19T08:08:22.061Z,7.63
2023-05-19T08:11:24.480Z,8.25
2023-05-19T08:14:27.503Z,9.07
2023-05-19T08:17:29.954Z,8.35
2023-05-19T08:20:34.185Z,7.38
2023-05-19T08:23:37.543Z,6.13
2023-05-19T08:26:39.983Z,7.50
2023-05-19T08:29:42.543Z,7.37
2023-05-19T08:32:44.901Z,7.65
2023-05-19T08:35:47.508Z,6.72
2023-05-19T08:38:49.780Z,5.55
2023-05-19T08:41:52.804Z,6.70
2023-05-19T08:44:55.153Z,6.50
2023-05-19T08:47:57.633Z,5.78
2023-05-19T08:51:11.326Z,4.13
2023-05-19T08:54:16.666Z,4.10
2023-05-19T08:57:19.050Z,5.10
2023-05-19T09:00:23.338Z,5.10
2023-05-19T09:03:26.685Z,4.68
2023-05-19T09:06:32.452Z,5.40
2023-05-19T09:09:34.738Z,5.20
2023-05-19T09:12:38.117Z,4.82
2023-05-19T09:15:42.351Z,5.23
2023-05-19T09:18:56.242Z,4.22
2023-05-19T09:22:05.902Z,4.28
2023-05-19T09:25:17.828Z,4.15
2023-05-19T09:28:35.802Z,4.43
2023-05-19T09:31:38.131Z,4.83
2023-05-19T09:34:41.836Z,4.28
2023-05-19T09:37:44.218Z,3.90
2023-05-19T09:40:48.382Z,4.20
2023-05-19T09:43:54.733Z,4.18
2023-05-19T09:46:58.324Z,3.90
2023-05-19T09:50:00.745Z,4.75
2023-05-19T09:53:03.930Z,4.40
2023-05-19T09:56:08.786Z,3.60
2023-05-19T09:59:12.020Z,4.47
2023-05-19T10:02:16.795Z,4.83
2023-05-19T10:05:22.816Z,4.50
2023-05-19T10:08:27.394Z,4.28
2023-05-19T10:11:30.318Z,3.80
2023-05-19T10:14:32.611Z,4.18
2023-05-19T10:17:36.067Z,4.40
2023-05-19T10:20:39.714Z,3.90
2023-05-19T10:23:42.018Z,4.05
2023-05-19T10:26:45.509Z,3.90
2023-05-19T10:29:49.312Z,3.67
2023-05-19T10:32:52.614Z,3.77
2023-05-19T10:35:58.155Z,3.47
2023-05-19T10:39:03.521Z,3.90
2023-05-19T10:42:18.226Z,3.58
2023-05-19T10:45:22.596Z,3.70
2023-05-19T10:48:25.051Z,3.90
2023-05-19T10:51:36.080Z,3.80
2023-05-19T10:54:47.987Z,3.80
2023-05-19T10:57:54.348Z,3.92
2023-05-19T11:01:02.703Z,3.58
2023-05-19T11:04:06.159Z,3.10
2023-05-19T11:07:09.355Z,3.50
2023-05-19T11:10:11.854Z,3.97
2023-05-19T11:13:22.656Z,4.07
2023-05-19T11:16:29.911Z,3.40
2023-05-19T11:19:35.176Z,3.47
2023-05-19T11:22:38.920Z,3.05
2023-05-19T11:25:41.927Z,3.60
2023-05-19T11:28:45.554Z,3.25
2023-05-19T11:31:48.879Z,3.80
2023-05-19T11:34:51.601Z,3.40
2023-05-19T11:37:57.642Z,3.50
2023-05-19T11:41:00.853Z,3.65
2023-05-19T11:44:03.125Z,3.40
2023-05-19T11:47:05.982Z,3.40
2023-05-19T11:50:12.820Z,3.63
2023-05-19T11:53:17.173Z,3.30
2023-05-19T11:56:19.488Z,3.47
2023-05-19T11:59:29.605Z,3.30
2023-05-19T12:02:32.050Z,3.20
2023-05-19T12:05:39.885Z,3.37
2023-05-19T12:08:45.740Z,3.10
2023-05-19T12:11:48.095Z,3.50
2023-05-19T12:14:51.338Z,3.25
2023-05-19T12:18:01.049Z,3.50
2023-05-19T12:21:03.438Z,3.30
2023-05-19T12:24:06.153Z,3.50
2023-05-19T12:27:19.620Z,3.33
2023-05-19T12:30:26.346Z,3.10
2023-05-19T12:33:28.649Z,3.20
2023-05-19T12:36:31.997Z,2.87
2023-05-19T12:39:34.390Z,3.30
2023-05-19T12:42:37.905Z,2.97
2023-05-19T12:45:42.656Z,3.55
2023-05-19T12:48:45.613Z,2.92
2023-05-19T12:51:54.296Z,3.33
2023-05-19T12:55:07.566Z,2.97
2023-05-19T12:58:11.540Z,3.15
2023-05-19T13:01:17.987Z,3.20
2023-05-19T13:04:20.338Z,3.30
2023-05-19T13:07:22.598Z,2.73
2023-05-19T13:10:27.307Z,3.25
2023-05-19T13:13:32.949Z,3.35
2023-05-19T13:16:35.343Z,3.00
2023-05-19T13:19:37.957Z,3.10
2023-05-19T13:22:40.466Z,2.90
2023-05-19T13:25:43.251Z,2.95
2023-05-19T13:28:45.650Z,3.00
2023-05-19T13:31:47.998Z,2.72
2023-05-19T13:34:50.226Z,2.97
2023-05-19T13:37:52.525Z,2.80
2023-05-19T13:40:54.857Z,3.22
2023-05-19T13:43:58.468Z,3.05
2023-05-19T13:47:00.882Z,3.17
2023-05-19T13:50:04.649Z,2.80
2023-05-19T13:53:07.190Z,3.20
2023-05-19T13:56:09.729Z,3.20
2023-05-19T13:59:12.038Z,3.00
2023-05-19T14:02:14.591Z,2.40
2023-05-19T14:05:16.966Z,3.08
2023-05-19T14:08:19.447Z,2.87
2023-05-19T14:11:21.903Z,2.90
2023-05-19T14:14:24.255Z,2.60
2023-05-19T14:17:27.627Z,3.20
2023-05-19T14:20:30.037Z,3.40
2023-05-19T14:23:32.474Z,3.10
2023-05-19T14:26:34.767Z,2.85
2023-05-19T14:29:37.065Z,3.90
2023-05-19T14:32:39.635Z,2.80
2023-05-19T14:35:42.122Z,3.30
2023-05-19T14:38:44.417Z,2.60
2023-05-19T14:41:47.149Z,3.10
2023-05-19T14:44:49.541Z,3.13
2023-05-19T14:47:52.750Z,3.28
2023-05-19T14:50:55.184Z,3.60
2023-05-19T14:53:57.536Z,3.50
2023-05-19T14:57:00.246Z,3.28
2023-05-19T15:00:02.676Z,3.20
2023-05-19T15:03:05.373Z,3.42
2023-05-19T15:06:11.204Z,3.78
2023-05-19T15:09:15.012Z,3.20
2023-05-19T15:12:17.311Z,3.50
2023-05-19T15:15:19.523Z,3.63
2023-05-19T15:18:21.743Z,3.25
2023-05-19T15:21:23.986Z,3.40
2023-05-19T15:24:26.370Z,3.10
2023-05-19T15:27:29.056Z,3.47
2023-05-19T15:30:31.374Z,3.38
2023-05-19T15:33:33.683Z,3.40
2023-05-19T15:36:36.081Z,3.30
2023-05-19T15:39:38.377Z,3.70
2023-05-19T15:42:40.744Z,3.58
2023-05-19T15:45:43.000Z,3.42
2023-05-19T15:48:45.281Z,3.42
2023-05-19T15:51:47.721Z,3.45
2023-05-19T15:54:50.067Z,3.70
2023-05-19T15:57:52.348Z,3.28
2023-05-19T16:00:54.607Z,3.35
2023-05-19T16:03:57.030Z,3.20
2023-05-19T16:06:59.480Z,3.72
2023-05-19T16:10:01.740Z,3.00
2023-05-19T16:13:04.082Z,3.35
2023-05-19T16:16:06.667Z,3.35
2023-05-19T16:19:09.023Z,3.30
2023-05-19T16:22:11.462Z,3.47
2023-05-19T16:25:13.736Z,3.03
2023-05-19T16:28:16.186Z,3.40
2023-05-19T16:31:18.480Z,3.33
2023-05-19T16:34:20.764Z,3.22
2023-05-19T16:37:23.005Z,3.35
2023-05-19T16:40:25.426Z,3.40
2023-05-19T16:43:27.768Z,3.35
2023-05-19T16:46:31.465Z,3.63
2023-05-19T16:49:34.295Z,3.40
2023-05-19T16:52:37.946Z,4.15
2023-05-19T16:55:40.283Z,3.63
2023-05-19T16:58:42.547Z,3.50
2023-05-19T17:01:44.919Z,3.60
2023-05-19T17:04:47.257Z,3.30
2023-05-19T17:07:49.470Z,3.72
2023-05-19T17:10:51.685Z,3.70
2023-05-19T17:13:53.952Z,3.55
2023-05-19T17:16:56.228Z,3.70
2023-05-19T17:19:58.548Z,3.72
2023-05-19T17:23:00.848Z,3.38
2023-05-19T17:26:03.290Z,3.50
2023-05-19T17:29:06.022Z,3.40
2023-05-19T17:32:08.435Z,3.00
2023-05-19T17:35:10.802Z,3.50
2023-05-19T17:38:13.076Z,3.70
2023-05-19T17:41:15.463Z,3.80
2023-05-19T17:44:17.699Z,4.20
2023-05-19T17:47:19.956Z,4.10
2023-05-19T17:50:22.254Z,4.10
2023-05-19T17:53:24.866Z,4.05
2023-05-19T17:56:30.330Z,3.90
2023-05-19T17:59:32.712Z,3.75
2023-05-19T18:02:35.172Z,3.83
2023-05-19T18:05:38.056Z,4.53
2023-05-19T18:08:42.565Z,4.35
2023-05-19T18:11:44.866Z,4.50
2023-05-19T18:14:47.238Z,4.15
2023-05-19T18:17:49.553Z,4.60
2023-05-19T18:20:52.202Z,4.70
2023-05-19T18:23:54.431Z,5.05
2023-05-19T18:26:56.737Z,4.97
2023-05-19T18:29:59.109Z,5.20
2023-05-19T18:33:03.883Z,5.00
2023-05-19T18:36:06.685Z,5.32
2023-05-19T18:39:09.068Z,5.65
2023-05-19T18:42:11.330Z,5.60
2023-05-19T18:45:13.718Z,5.93
2023-05-19T18:48:16.197Z,5.72
2023-05-19T18:51:19.909Z,5.88
2023-05-19T18:54:22.489Z,6.20
2023-05-19T18:57:24.762Z,6.27
2023-05-19T19:00:28.123Z,6.57
2023-05-19T19:03:30.762Z,7.53
2023-05-19T19:06:32.990Z,6.93
2023-05-19T19:09:35.367Z,7.32
2023-05-19T19:12:37.759Z,6.97
2023-05-19T19:15:40.035Z,7.22
2023-05-19T19:18:42.421Z,7.45
2023-05-19T19:21:44.857Z,8.40
2023-05-19T19:24:47.170Z,7.28
2023-05-19T19:27:49.446Z,8.03
2023-05-19T19:30:51.764Z,8.20
2023-05-19T19:33:58.825Z,8.15
2023-05-19T19:37:01.338Z,7.22
2023-05-19T19:40:03.875Z,7.93
2023-05-19T19:43:06.216Z,7.83
2023-05-19T19:46:09.228Z,8.27
2023-05-19T19:49:11.604Z,8.30
2023-05-19T19:52:13.841Z,8.30
2023-05-19T19:55:16.377Z,8.15
2023-05-19T19:58:18.636Z,8.13
2023-05-19T20:01:23.540Z,8.40
2023-05-19T20:04:26.564Z,9.38
2023-05-19T20:07:29.195Z,8.32
2023-05-19T20:10:31.679Z,9.02
2023-05-19T20:13:34.060Z,8.67
2023-05-19T20:16:36.371Z,9.15
2023-05-19T20:19:38.716Z,8.43
2023-05-19T20:22:41.065Z,8.38
2023-05-19T20:25:54.785Z,8.00
2023-05-19T20:29:05.048Z,8.87
2023-05-19T20:32:07.387Z,8.73
2023-05-19T20:35:09.841Z,8.25
2023-05-19T20:38:12.117Z,7.95
2023-05-19T20:41:14.904Z,8.30
2023-05-19T20:44:17.230Z,8.13
2023-05-19T20:47:19.881Z,8.60
2023-05-19T20:50:22.291Z,8.68
2023-05-19T20:53:24.582Z,9.20
2023-05-19T20:56:27.385Z,8.88
2023-05-19T20:59:29.633Z,7.80
2023-05-19T21:02:31.941Z,8.48
2023-05-19T21:05:34.409Z,8.63
2023-05-19T21:08:36.825Z,8.68
2023-05-19T21:11:39.089Z,8.57
2023-05-19T21:14:41.317Z,8.33
2023-05-19T21:17:43.678Z,8.32
2023-05-19T21:20:46.075Z,8.75
2023-05-19T21:23:48.397Z,8.90
2023-05-19T21:26:51.533Z,9.18
2023-05-19T21:29:54.310Z,9.97
2023-05-19T21:32:57.209Z,10.40
2023-05-19T21:36:00.484Z,9.48
2023-05-19T21:39:04.529Z,9.50
2023-05-19T21:42:06.902Z,10.45
2023-05-19T21:45:09.533Z,10.80
2023-05-19T21:48:12.197Z,10.05
2023-05-19T21:51:14.637Z,10.60
2023-05-19T21:54:16.905Z,10.75
2023-05-19T21:57:19.199Z,10.80
2023-05-19T22:00:21.463Z,10.37
2023-05-19T22:03:23.852Z,11.77
2023-05-19T22:06:26.540Z,10.80
2023-05-19T22:09:29.262Z,11.98
2023-05-19T22:12:32.533Z,11.43
2023-05-19T22:15:34.916Z,10.63
2023-05-19T22:18:37.464Z,10.18
2023-05-19T22:21:40.114Z,10.70
2023-05-19T22:24:42.576Z,10.00
2023-05-19T22:27:44.832Z,10.05
2023-05-19T22:30:47.059Z,10.80
2023-05-19T22:33:49.354Z,9.90
2023-05-19T22:36:51.582Z,10.93
2023-05-19T22:39:53.862Z,9.40
2023-05-19T22:42:56.166Z,9.52
2023-05-19T22:45:58.430Z,9.63
2023-05-19T22:49:01.073Z,10.05
2023-05-19T22:52:03.307Z,9.27
2023-05-19T22:55:05.748Z,9.65
2023-05-19T22:58:08.228Z,9.68
2023-05-19T23:01:10.523Z,9.97
2023-05-19T23:04:12.908Z,10.00
2023-05-19T23:07:15.182Z,10.18
2023-05-19T23:10:17.455Z,10.00
2023-05-19T23:13:19.727Z,9.63
2023-05-19T23:16:22.315Z,10.07
2023-05-19T23:19:24.716Z,9.93
2023-05-19T23:22:27.018Z,9.60
2023-05-19T23:25:29.283Z,9.00
2023-05-19T23:28:31.518Z,9.27
2023-05-19T23:31:34.982Z,9.27
2023-05-19T23:34:37.446Z,9.30
2023-05-19T23:37:39.847Z,9.52
2023-05-19T23:40:42.527Z,9.55
2023-05-19T23:43:44.902Z,10.90
2023-05-19T23:46:47.311Z,10.00
2023-05-19T23:49:49.711Z,10.25
2023-05-19T23:52:52.043Z,10.75
2023-05-19T23:55:55.278Z,9.63
2023-05-19T23:58:58.347Z,10.55
